KUES

Waukesha County Airport

Waukesha, Wisconsin, USA
KUES 142054Z 1421/1518 30006KT 3SM BR SCT002 FM142200 31007KT 5SM BR SCT005 FM142300 31005KT 6SM HZ SCT005 FM150300 30005KT 5SM BR SCT008 FM150800 VRB04KT 4SM BR SCT005 TEMPO 1510/1513 1SM BR BKN005 FM151500 06005KT P6SM FEW200
Issued Valid From Valid To
Dec-14 @ 20:54 UTC
(an hour ago)
Dec-14 @ 21:00 UTC
(an hour ago)
Dec-15 @ 18:00 UTC
(in 20 hours)
Expired Click to View Dec-14 @ 21:00 to Dec-14 @ 22:00
KUES 142054Z 1421/1518 30006KT 3SM BR SCT002
Wind Visibility Clouds Conditions
300° at 6 knots 3 miles
  • Scattered at 200' AGL
  • Mist
From Dec-14 @ 22:00 to Dec-14 @ 23:00
FM142200 31007KT 5SM BR SCT005
Wind Visibility Clouds Conditions
310° at 7 knots 5 miles
  • Scattered at 500' AGL
  • Mist
From Dec-14 @ 23:00 to Dec-15 @ 03:00
FM142300 31005KT 6SM HZ SCT005
Wind Visibility Clouds Conditions
310° at 5 knots 6 miles
  • Scattered at 500' AGL
  • Haze
From Dec-15 @ 03:00 to Dec-15 @ 08:00
FM150300 30005KT 5SM BR SCT008
Wind Visibility Clouds Conditions
300° at 5 knots 5 miles
  • Scattered at 800' AGL
  • Mist
From Dec-15 @ 08:00 to Dec-15 @ 15:00
FM150800 VRB04KT 4SM BR SCT005
Wind Visibility Clouds Conditions
Variable at 4 knots 4 miles
  • Scattered at 500' AGL
  • Mist
Temporary Dec-15 @ 10:00 to Dec-15 @ 13:00
TEMPO 1510/1513 1SM BR BKN005
Visibility Clouds Conditions
1 miles
  • Broken at 500' AGL
  • Mist
From Dec-15 @ 15:00 to Dec-15 @ 18:00
FM151500 06005KT P6SM FEW200
Wind Visibility Clouds
60° at 5 knots Greater than 6 miles
  • Few at 20,000' AGL
KUES 142054Z 1421/1518 30006KT 3SM BR SCT002 FM142200 31007KT 5SM BR SCT005 FM142300 31005KT 6SM HZ SCT005 FM150300 30005KT 5SM BR SCT008 FM150800 VRB04KT 4SM BR SCT005 TEMPO 1510/1513 1SM BR BKN005 FM151500 06005KT P6SM FEW200
Issued Dec-14 @ 20:54 UTC
(an hour ago)
Valid From Dec-14 @ 21:00 UTC
(an hour ago)
Valid To Dec-15 @ 18:00 UTC
(in 20 hours)
Dec-14 @ 21:00 - Dec-14 @ 22:00
Wind Visibility
300° at 6 knots 3 miles
Clouds
  • Scattered at 200' AGL
Conditions
  • Mist
From Dec-14 @ 22:00 - Dec-14 @ 23:00
Wind Visibility
310° at 7 knots 5 miles
Clouds
  • Scattered at 500' AGL
Conditions
  • Mist
From Dec-14 @ 23:00 - Dec-15 @ 03:00
Wind Visibility
310° at 5 knots 6 miles
Clouds
  • Scattered at 500' AGL
Conditions
  • Haze
From Dec-15 @ 03:00 - Dec-15 @ 08:00
Wind Visibility
300° at 5 knots 5 miles
Clouds
  • Scattered at 800' AGL
Conditions
  • Mist
From Dec-15 @ 08:00 - Dec-15 @ 15:00
Wind Visibility
Variable at 4 knots 4 miles
Clouds
  • Scattered at 500' AGL
Conditions
  • Mist
Temporary Dec-15 @ 10:00 - Dec-15 @ 13:00
Clouds
  • Broken at 500' AGL
Conditions
  • Mist
From Dec-15 @ 15:00 - Dec-15 @ 18:00
Wind Visibility
60° at 5 knots Greater than 6 miles
Clouds
  • Few at 20,000' AGL